Hovedside
METAR-TAF:

METAR-TAF

Lufthavner :

Svolvær, Norge

Svolvær lufthavn

breddegrad: 68-15N, lengdegrad: 014-40E, høyde over havet: 0 m

Gjeldene værobservasjon

Denne rapporten ble laget for 54 minutter siden, klokken 17:50 UTC
Vind 6 kt fra Nordvest
Temperatur 12°C
Luftfuktighet 62%
Trykk 1024 hPa
Sikt 10 km eller mer
ingen skyer under 1500 m og ingen bygeskyer

METAR: ENSH 221750Z 32006KT CAVOK 12/05 Q1024 RMK WIND 150FT 06003KT 010V090

Tid: 20:44 (18:44 UTC)

Varsel

Denne rapporten ble laget for 4 timer og 44 minutter siden, klokken 14:00 UTC
Varsel gyldig fra 22. klokken 15 UTC til 22. klokken 20 UTC
Vind 8 kt fra Øst
Sikt 10 km eller mer
ingen skyer under 1500 m og ingen bygeskyer

TAF: ENSH 221400Z 2215/2220 10008KT CAVOK

Værobservasjoner og værvarsel for over 4000 flyplasser (METAR- og TAF-rapporter).

Tilgjengelige stasjoner er representert av de røde og gule prikkene på kartet.

Hold musepekeren over prikken for å se navnet på stasjonen.

Klikk så for å se værobservasjoner og -varsler.

For å forandre kartet kan du klikke på den grønne knappen med svart kryss for å zoome inn, på den grønne knappen med strek for å zoome ut, eller på de grønne pilene for å se tilstøtende kart.


METAR-TAF: